GMT,Max TemperatureF,Mean TemperatureF,Min TemperatureF,Max Dew PointF,MeanDew PointF,Min DewpointF,Max Humidity, Mean Humidity, Min Humidity, Max Sea Level PressureIn, Mean Sea Level PressureIn, Min Sea Level PressureIn, Max VisibilityMiles, Mean VisibilityMiles, Min VisibilityMiles, Max Wind SpeedMPH, Mean Wind SpeedMPH, Max Gust SpeedMPH,PrecipitationIn, CloudCover, Events, WindDirDegrees
2014-2-1,46,40,33,41,35,27,93,77,51,29.09,28.77,28.56,19,8,6,37,23,56,0.12,5,Rain,217
2014-2-2,48,42,37,40,37,33,87,75,56,29.50,29.38,29.09,19,10,6,30,22,37,0.00,4,Rain,209
2014-2-3,46,42,39,43,41,36,93,86,67,29.39,29.26,29.18,16,7,4,36,22,52,0.28,7,Rain,149
2014-2-4,44,38,33,42,36,32,93,81,51,29.26,29.06,28.59,19,8,4,40,14,55,0.02,5,Rain-Hail,150
2014-2-5,46,44,41,45,42,39,100,88,70,28.89,28.52,28.35,12,6,4,34,27,50,0.28,7,Rain,163
2014-2-6,44,38,33,43,37,32,100,85,70,29.18,29.08,28.91,19,9,4,27,16,31,0.00,5,Rain,248
2014-2-7,46,39,33,43,35,30,100,83,47,29.28,29.06,28.56,19,8,6,29,14,41,0.08,5,Rain,207
2014-2-8,49,45,41,41,38,32,93,76,55,28.57,28.32,28.17,16,9,6,27,21,40,0.08,5,Rain,202
2014-2-9,44,40,32,40,36,28,93,80,65,29.05,28.81,28.44,19,9,5,29,23,40,0.04,5,Rain,236
2014-2-10,41,34,27,37,32,27,96,85,47,29.44,29.25,29.03,19,8,6,20,9,,0.00,5,Rain,253
2014-2-11,39,36,32,36,32,28,100,84,61,29.32,29.18,29.06,19,8,2,25,18,37,0.12,5,Rain-Snow-Hail,227
2014-2-12,48,40,32,41,34,28,93,79,57,29.34,28.81,28.20,16,8,4,51,22,75,0.24,6,Rain-Snow,207
2014-2-13,43,38,33,37,33,31,93,81,55,29.29,29.05,28.91,19,8,4,36,25,48,0.03,3,Rain-Snow-Hail,236
2014-2-14,46,40,34,45,39,32,100,88,72,29.33,28.79,28.29,19,8,3,37,14,52,0.43,6,Rain-Snow,162
2014-2-15,46,40,35,43,36,32,100,83,56,29.57,29.04,28.38,19,9,3,28,21,37,0.04,5,Rain,270
2014-2-16,46,40,33,41,35,30,93,81,52,29.67,29.57,29.44,19,10,4,16,12,,0.00,4,Rain,190
2014-2-17,50,46,42,48,44,40,100,91,76,29.57,29.43,29.39,16,6,2,25,16,28,0.03,6,Rain,160
2014-2-18,49,43,37,43,41,37,100,86,67,29.75,29.67,29.56,16,7,0,16,12,,0.00,5,Fog-Rain,244
2014-2-19,53,48,42,48,44,41,98,85,57,29.77,29.66,29.36,19,8,4,20,11,,0.01,5,Rain,193
2014-2-20,47,42,37,48,39,29,93,78,47,29.41,29.30,29.12,19,9,2,34,20,46,0.12,5,Rain,227
2014-2-21,46,41,36,39,35,31,93,79,59,29.45,29.35,29.30,19,7,2,34,22,45,0.04,4,Rain,231
2014-2-22,51,46,40,46,40,35,87,78,61,29.61,29.51,29.39,19,9,6,26,20,40,0.00,5,Rain,213
2014-2-23,52,47,42,46,44,39,87,78,63,29.47,29.35,29.24,19,8,5,36,23,54,0.02,7,Rain,197
2014-2-24,51,46,40,41,38,36,100,79,49,29.45,29.34,29.09,19,9,6,25,11,39,0.03,6,Rain,182
2014-2-25,48,44,41,41,36,32,81,71,55,29.47,29.19,29.00,19,9,6,33,18,46,0.02,3,Rain,204
2014-2-26,49,44,39,41,36,30,87,71,37,29.78,29.64,29.44,19,9,6,32,23,43,0.03,5,Rain,219
2014-2-27,48,42,37,43,36,33,93,78,54,29.64,29.54,29.42,19,10,6,29,17,,0.00,4,Rain,230
2014-2-28,48,42,35,38,35,33,93,80,54,29.70,29.60,29.42,19,9,6,21,12,,0.00,3,Rain,293